createdAt,value
2018-05-29T00:07:09.037Z,41.60
2018-05-29T00:09:41.544Z,45.07
2018-05-29T00:12:13.691Z,46.23
2018-05-29T00:14:43.014Z,46.50
2018-05-29T00:17:14.454Z,45.23
2018-05-29T00:19:47.518Z,46.23
2018-05-29T00:22:17.613Z,45.67
2018-05-29T00:25:03.656Z,47.03
2018-05-29T00:27:33.904Z,45.90
2018-05-29T00:30:03.332Z,44.00
2018-05-29T00:33:21.334Z,45.50
2018-05-29T00:35:51.564Z,43.90
2018-05-29T00:38:24.021Z,44.10
2018-05-29T00:41:44.045Z,45.13
2018-05-29T00:46:48.046Z,43.80
2018-05-29T00:49:20.333Z,44.57
2018-05-29T00:52:04.897Z,43.70
2018-05-29T00:54:35.303Z,41.77
2018-05-29T00:57:05.797Z,42.13
2018-05-29T00:59:48.908Z,38.27
2018-05-29T01:02:22.234Z,39.43
2018-05-29T01:04:51.797Z,38.20
2018-05-29T01:07:27.056Z,30.67
2018-05-29T01:09:59.031Z,24.57
2018-05-29T01:12:29.344Z,23.47
2018-05-29T01:15:01.768Z,21.53
2018-05-29T01:18:00.640Z,17.83
2018-05-29T01:20:34.344Z,13.73
2018-05-29T01:23:20.646Z,9.70
2018-05-29T01:29:06.212Z,7.50
2018-05-29T01:31:36.233Z,7.50
2018-05-29T01:34:07.351Z,7.67
2018-05-29T01:36:42.163Z,7.70
2018-05-29T01:39:11.935Z,6.37
2018-05-29T01:41:50.004Z,7.40
2018-05-29T01:44:24.623Z,9.10
2018-05-29T01:56:02.087Z,14.73
2018-05-29T01:58:33.458Z,16.90
2018-05-29T02:03:46.774Z,19.47
2018-05-29T02:06:16.772Z,19.90
2018-05-29T02:11:22.559Z,20.80
2018-05-29T02:13:51.707Z,20.93
2018-05-29T02:16:22.138Z,22.33
2018-05-29T02:18:52.169Z,23.17
2018-05-29T02:24:09.227Z,23.60
2018-05-29T02:26:38.610Z,22.73
2018-05-29T02:29:07.808Z,24.80
2018-05-29T02:31:36.944Z,24.13
2018-05-29T02:34:10.829Z,25.57
2018-05-29T02:36:46.377Z,24.73
2018-05-29T02:39:19.184Z,26.30
2018-05-29T02:41:50.004Z,26.73
2018-05-29T02:44:19.227Z,27.53
2018-05-29T02:46:50.899Z,28.17
2018-05-29T02:49:21.441Z,28.30
2018-05-29T02:51:51.084Z,29.53
2018-05-29T02:54:20.173Z,30.53
2018-05-29T02:56:50.163Z,31.60
2018-05-29T02:59:20.249Z,31.90
2018-05-29T03:01:50.187Z,33.67
2018-05-29T03:04:19.370Z,32.33
2018-05-29T03:06:48.444Z,33.20
2018-05-29T03:09:19.178Z,32.33
2018-05-29T03:11:48.648Z,34.13
2018-05-29T03:14:18.132Z,33.73
2018-05-29T03:16:50.716Z,34.20
2018-05-29T03:22:06.768Z,32.80
2018-05-29T03:24:38.021Z,32.77
2018-05-29T03:27:50.520Z,34.20
2018-05-29T03:30:20.122Z,33.33
2018-05-29T03:32:50.265Z,32.50
2018-05-29T03:35:21.734Z,32.23
2018-05-29T03:37:52.543Z,30.67
2018-05-29T03:40:21.688Z,30.97
2018-05-29T03:42:50.944Z,30.20
2018-05-29T03:45:20.059Z,30.03
2018-05-29T03:47:50.039Z,27.97
2018-05-29T03:50:21.435Z,27.73
2018-05-29T03:52:55.500Z,29.03
2018-05-29T03:55:25.343Z,26.40
2018-05-29T03:57:54.600Z,20.17
2018-05-29T04:00:30.011Z,17.27
2018-05-29T04:03:03.215Z,16.40
2018-05-29T04:05:32.280Z,15.77
2018-05-29T04:08:06.932Z,16.93
2018-05-29T04:10:36.259Z,15.70
2018-05-29T04:13:06.121Z,18.43
2018-05-29T04:15:35.292Z,20.07
2018-05-29T04:18:05.897Z,16.97
2018-05-29T04:20:50.949Z,14.63
2018-05-29T04:23:48.684Z,12.47
2018-05-29T04:26:17.913Z,11.23
2018-05-29T04:28:49.007Z,11.57
2018-05-29T04:31:22.838Z,11.90
2018-05-29T04:33:53.061Z,12.83
2018-05-29T04:36:26.829Z,12.10
2018-05-29T04:39:00.559Z,13.50
2018-05-29T04:41:31.484Z,13.07
2018-05-29T04:44:00.685Z,12.30
2018-05-29T04:46:30.920Z,11.63
2018-05-29T04:49:01.648Z,11.60
2018-05-29T04:51:38.875Z,11.37
2018-05-29T04:54:09.670Z,11.30
2018-05-29T04:59:24.257Z,10.37
2018-05-29T05:02:05.832Z,10.83
2018-05-29T05:04:35.230Z,8.03
2018-05-29T05:07:04.292Z,7.40
2018-05-29T05:09:34.960Z,8.23
2018-05-29T05:12:04.138Z,7.80
2018-05-29T05:14:39.711Z,7.73
2018-05-29T05:17:12.784Z,7.87
2018-05-29T05:19:43.735Z,8.00
2018-05-29T05:22:13.062Z,8.53
2018-05-29T05:24:52.736Z,7.33
2018-05-29T05:27:21.953Z,7.03
2018-05-29T05:29:51.038Z,7.63
2018-05-29T05:32:20.512Z,8.23
2018-05-29T05:34:54.421Z,8.17
2018-05-29T05:37:27.872Z,8.87
2018-05-29T05:40:05.311Z,8.63
2018-05-29T05:42:44.307Z,9.23
2018-05-29T05:45:15.437Z,8.07
2018-05-29T05:47:45.129Z,9.33
2018-05-29T05:50:18.095Z,8.60
2018-05-29T05:52:53.504Z,10.83
2018-05-29T05:55:26.474Z,11.27
2018-05-29T05:58:01.789Z,11.13
2018-05-29T06:00:31.631Z,10.47
2018-05-29T06:03:14.211Z,10.80
2018-05-29T06:05:52.616Z,11.33
2018-05-29T06:08:22.009Z,10.73
2018-05-29T06:10:51.271Z,10.50
2018-05-29T06:13:20.410Z,11.77
2018-05-29T06:15:51.876Z,13.00
2018-05-29T06:18:22.177Z,13.13
2018-05-29T06:20:51.289Z,13.50
2018-05-29T06:23:20.511Z,14.50
2018-05-29T06:25:50.815Z,14.63
2018-05-29T06:28:20.348Z,14.23
2018-05-29T06:30:53.852Z,13.77
2018-05-29T06:33:23.799Z,14.47
2018-05-29T06:35:52.986Z,14.67
2018-05-29T06:38:22.219Z,19.17
2018-05-29T06:40:51.289Z,15.93
2018-05-29T06:43:20.511Z,16.00
2018-05-29T06:45:51.104Z,18.17
2018-05-29T06:48:28.203Z,21.30
2018-05-29T06:50:58.357Z,23.30
2018-05-29T06:53:28.887Z,21.80
2018-05-29T06:55:59.451Z,26.77
2018-05-29T06:58:28.612Z,21.00
2018-05-29T07:00:58.785Z,19.17
2018-05-29T07:03:27.876Z,18.60
2018-05-29T07:05:57.097Z,19.00
2018-05-29T07:08:26.603Z,18.03
2018-05-29T07:10:55.800Z,17.97
2018-05-29T07:13:26.571Z,18.20
2018-05-29T07:15:55.859Z,18.93
2018-05-29T07:18:25.101Z,19.43
2018-05-29T07:20:54.300Z,18.57
2018-05-29T07:23:23.382Z,17.23
2018-05-29T07:25:53.838Z,17.73
2018-05-29T07:28:23.150Z,18.13
2018-05-29T07:30:52.375Z,17.23
2018-05-29T07:33:21.819Z,18.07
2018-05-29T07:35:52.366Z,17.00
2018-05-29T07:38:21.691Z,18.03
2018-05-29T07:40:51.714Z,18.00
2018-05-29T07:43:25.547Z,18.00
2018-05-29T07:48:57.353Z,17.53
2018-05-29T07:51:26.553Z,18.13
2018-05-29T07:53:57.909Z,17.53
2018-05-29T07:56:27.893Z,19.67
2018-05-29T07:59:07.538Z,17.10
2018-05-29T08:01:36.783Z,18.57
2018-05-29T08:04:05.891Z,18.23
2018-05-29T08:06:34.938Z,18.73
2018-05-29T08:09:05.102Z,18.50
2018-05-29T08:11:34.352Z,17.93
2018-05-29T08:14:04.474Z,17.90
2018-05-29T08:16:33.636Z,18.03
2018-05-29T08:19:02.796Z,16.63
2018-05-29T08:21:32.089Z,18.53
2018-05-29T08:24:11.400Z,19.90
2018-05-29T08:26:41.602Z,19.27
2018-05-29T08:29:12.561Z,18.70
2018-05-29T08:31:42.410Z,19.57
2018-05-29T08:34:12.608Z,18.70
2018-05-29T08:36:41.997Z,18.47
2018-05-29T08:39:11.307Z,18.17
2018-05-29T08:41:48.681Z,18.00
2018-05-29T08:44:17.842Z,17.37
2018-05-29T08:46:47.428Z,18.17
2018-05-29T08:49:17.290Z,17.27
2018-05-29T08:51:53.796Z,16.43
2018-05-29T08:54:22.916Z,16.93
2018-05-29T08:56:52.623Z,16.93
2018-05-29T08:59:22.067Z,16.13
2018-05-29T09:01:52.287Z,17.33
2018-05-29T09:04:21.648Z,17.93
2018-05-29T09:06:56.182Z,18.83
2018-05-29T09:09:27.965Z,20.33
2018-05-29T09:11:57.186Z,18.97
2018-05-29T09:14:27.523Z,18.87
2018-05-29T09:17:12.159Z,20.50
2018-05-29T09:19:43.219Z,19.67
2018-05-29T09:22:17.612Z,19.67
2018-05-29T09:24:49.647Z,18.60
2018-05-29T09:27:18.889Z,18.63
2018-05-29T09:29:48.104Z,19.03
2018-05-29T09:32:18.110Z,20.70
2018-05-29T09:34:47.201Z,21.07
2018-05-29T09:37:16.313Z,19.57
2018-05-29T09:39:45.406Z,19.73
2018-05-29T09:42:14.814Z,20.13
2018-05-29T09:44:44.111Z,20.97
2018-05-29T09:47:13.485Z,20.90
2018-05-29T09:49:42.635Z,21.57
2018-05-29T09:52:11.790Z,20.77
2018-05-29T09:54:40.987Z,20.67
2018-05-29T09:57:11.628Z,20.80
2018-05-29T09:59:41.580Z,20.47
2018-05-29T10:02:10.952Z,20.33
2018-05-29T10:04:40.127Z,19.53
2018-05-29T10:07:09.538Z,21.50
2018-05-29T10:09:39.569Z,19.60
2018-05-29T10:12:09.665Z,20.13
2018-05-29T10:14:38.825Z,20.67
2018-05-29T10:17:08.765Z,21.27
2018-05-29T10:19:37.941Z,21.63
2018-05-29T10:22:07.122Z,21.10
2018-05-29T10:24:38.728Z,20.20
2018-05-29T10:27:08.640Z,20.67
2018-05-29T10:29:37.843Z,19.20
2018-05-29T10:32:07.037Z,19.57
2018-05-29T10:34:36.176Z,22.00
2018-05-29T10:37:06.122Z,20.63
2018-05-29T10:39:37.344Z,20.67
2018-05-29T10:42:06.570Z,19.73
2018-05-29T10:44:39.620Z,20.40
2018-05-29T10:47:11.413Z,22.57
2018-05-29T10:49:45.031Z,20.20
2018-05-29T10:52:14.453Z,19.33
2018-05-29T10:54:43.751Z,18.70
2018-05-29T10:57:33.890Z,19.93
2018-05-29T11:00:10.012Z,20.43
2018-05-29T11:02:39.185Z,20.13
2018-05-29T11:05:39.465Z,20.30
2018-05-29T11:08:10.804Z,19.40
2018-05-29T11:10:41.423Z,19.87
2018-05-29T11:13:15.701Z,21.13
2018-05-29T11:15:45.010Z,20.10
2018-05-29T11:18:15.715Z,21.47
2018-05-29T11:20:45.518Z,19.90
2018-05-29T11:23:18.976Z,18.80
2018-05-29T11:26:16.128Z,19.07
2018-05-29T11:28:45.349Z,20.17
2018-05-29T11:31:16.287Z,19.70
2018-05-29T11:33:51.515Z,20.70
2018-05-29T11:36:20.802Z,21.10
2018-05-29T11:38:50.189Z,21.30
2018-05-29T11:41:19.498Z,23.30
2018-05-29T11:43:52.749Z,22.10
2018-05-29T11:46:26.651Z,24.47
2018-05-29T11:54:51.081Z,26.20
2018-05-29T11:57:23.108Z,27.37
2018-05-29T11:59:52.466Z,26.90
2018-05-29T12:02:21.856Z,26.40
2018-05-29T12:04:53.964Z,25.80
2018-05-29T12:07:26.169Z,27.07
2018-05-29T12:12:39.821Z,27.73
2018-05-29T12:24:33.636Z,27.63
2018-05-29T12:27:07.646Z,23.47
2018-05-29T12:29:39.598Z,30.50
2018-05-29T12:32:11.535Z,23.60
2018-05-29T12:37:27.700Z,21.33
2018-05-29T12:40:00.043Z,20.90
2018-05-29T12:42:32.522Z,22.13
2018-05-29T12:48:23.082Z,22.17
2018-05-29T12:53:56.935Z,23.90
2018-05-29T12:56:30.113Z,24.87
2018-05-29T12:59:02.318Z,25.33
2018-05-29T13:01:33.882Z,25.23
2018-05-29T13:10:35.191Z,28.37
2018-05-29T13:13:05.252Z,29.27
2018-05-29T13:50:11.841Z,27.93
2018-05-29T13:52:42.179Z,25.80
2018-05-29T13:55:24.024Z,26.43
2018-05-29T13:57:55.356Z,28.67
2018-05-29T14:00:24.852Z,27.03
2018-05-29T14:03:01.490Z,27.33
2018-05-29T14:05:31.146Z,26.13
2018-05-29T14:08:02.411Z,24.97
2018-05-29T14:13:50.457Z,19.17
2018-05-29T14:23:03.711Z,21.40
2018-05-29T14:28:16.657Z,27.07
2018-05-29T14:34:14.982Z,24.40
2018-05-29T14:36:45.386Z,27.43
2018-05-29T14:39:16.980Z,23.40
2018-05-29T14:41:46.474Z,20.83
2018-05-29T14:44:15.665Z,21.70
2018-05-29T14:46:45.032Z,23.97
2018-05-29T14:49:14.621Z,22.33
2018-05-29T14:51:48.695Z,22.13
2018-05-29T14:54:18.023Z,20.30
2018-05-29T14:56:50.079Z,23.07
2018-05-29T14:59:19.422Z,21.43
2018-05-29T15:01:48.638Z,23.97
2018-05-29T15:04:19.414Z,22.60
2018-05-29T15:06:48.735Z,21.97
2018-05-29T15:09:26.075Z,21.63
2018-05-29T15:11:55.309Z,23.13
2018-05-29T15:14:24.572Z,23.70
2018-05-29T15:16:54.988Z,21.10
2018-05-29T15:19:24.396Z,21.13
2018-05-29T15:21:53.593Z,20.33
2018-05-29T15:24:23.222Z,23.13
2018-05-29T15:26:53.205Z,22.60
2018-05-29T15:29:22.889Z,22.37
2018-05-29T15:31:52.357Z,22.03
2018-05-29T15:34:21.895Z,22.83
2018-05-29T15:36:51.043Z,24.07
2018-05-29T15:39:26.971Z,23.30
2018-05-29T15:41:59.524Z,23.03
2018-05-29T15:44:29.133Z,23.20
2018-05-29T15:46:58.512Z,22.37
2018-05-29T15:49:28.596Z,22.77
2018-05-29T15:52:02.477Z,23.40
2018-05-29T15:54:32.730Z,21.27
2018-05-29T15:57:02.071Z,20.37
2018-05-29T15:59:34.364Z,21.43
2018-05-29T16:02:07.052Z,21.20
2018-05-29T16:04:47.753Z,23.57
2018-05-29T16:07:17.082Z,23.50
2018-05-29T16:09:51.113Z,23.47
2018-05-29T16:12:21.797Z,22.33
2018-05-29T16:14:51.470Z,23.93
2018-05-29T16:17:23.994Z,22.43
2018-05-29T16:19:53.404Z,21.87
2018-05-29T16:22:25.185Z,22.27
2018-05-29T16:28:19.177Z,19.93
2018-05-29T16:30:48.454Z,21.43
2018-05-29T16:33:19.035Z,20.93
2018-05-29T16:35:49.357Z,23.63
2018-05-29T16:38:18.649Z,25.47
2018-05-29T16:40:48.998Z,24.43
2018-05-29T16:43:18.977Z,23.83
2018-05-29T16:45:48.757Z,23.70
2018-05-29T16:48:20.363Z,22.70
2018-05-29T16:50:50.327Z,23.07
2018-05-29T16:53:22.011Z,23.53
2018-05-29T16:55:51.295Z,21.03
2018-05-29T16:58:21.587Z,24.77
2018-05-29T17:00:50.832Z,23.33
2018-05-29T17:03:20.110Z,19.92
2018-05-29T17:05:50.327Z,20.58
2018-05-29T17:08:19.564Z,19.77
2018-05-29T17:10:50.229Z,20.08
2018-05-29T17:13:20.447Z,19.60
2018-05-29T17:15:51.393Z,21.75
2018-05-29T17:18:22.132Z,18.73
2018-05-29T17:20:52.282Z,19.70
2018-05-29T17:23:21.867Z,18.50
2018-05-29T17:25:51.769Z,20.12
2018-05-29T17:28:22.463Z,20.73
2018-05-29T17:30:51.571Z,19.87
2018-05-29T17:33:20.898Z,17.50
2018-05-29T17:35:49.963Z,20.55
2018-05-29T17:38:19.327Z,22.02
2018-05-29T17:40:48.674Z,21.92
2018-05-29T17:43:17.754Z,18.02
2018-05-29T17:45:47.706Z,16.85
2018-05-29T17:48:16.914Z,20.30
2018-05-29T17:50:47.194Z,18.05
2018-05-29T17:53:18.381Z,19.00
2018-05-29T17:55:47.860Z,20.60
2018-05-29T17:58:16.971Z,19.10
2018-05-29T18:00:46.383Z,19.67
2018-05-29T18:03:15.604Z,21.17
2018-05-29T18:05:44.872Z,19.98
2018-05-29T18:08:15.405Z,18.27
2018-05-29T18:10:44.788Z,20.58
2018-05-29T18:13:13.964Z,18.60
2018-05-29T18:15:43.815Z,18.65
2018-05-29T18:18:14.957Z,18.85
2018-05-29T18:20:44.743Z,19.20
2018-05-29T18:23:16.122Z,19.30
2018-05-29T18:25:46.405Z,19.52
2018-05-29T18:28:17.936Z,20.25
2018-05-29T18:30:47.144Z,18.12
2018-05-29T18:33:17.411Z,19.30
2018-05-29T18:35:47.771Z,19.30
2018-05-29T18:38:17.953Z,18.70
2018-05-29T18:40:47.075Z,18.80
2018-05-29T18:43:16.140Z,18.25
2018-05-29T18:45:46.247Z,17.15
2018-05-29T18:48:17.513Z,15.65
2018-05-29T18:50:48.679Z,16.27
2018-05-29T18:53:18.045Z,15.10
2018-05-29T18:55:47.461Z,14.38
2018-05-29T18:58:16.578Z,15.52
2018-05-29T19:00:48.184Z,15.23
2018-05-29T19:03:18.569Z,17.05
2018-05-29T19:05:47.899Z,15.85
2018-05-29T19:08:18.553Z,17.45
2018-05-29T19:10:48.054Z,18.00
2018-05-29T19:13:20.288Z,18.42
2018-05-29T19:15:49.928Z,17.50
2018-05-29T19:18:19.941Z,18.83
2018-05-29T19:20:50.097Z,19.48
2018-05-29T19:23:22.330Z,17.62
2018-05-29T19:25:53.507Z,19.62
2018-05-29T19:28:27.183Z,20.02
2018-05-29T19:33:32.782Z,20.60
2018-05-29T19:36:03.368Z,20.25
2018-05-29T19:38:36.413Z,20.65
2018-05-29T19:41:07.469Z,19.52
2018-05-29T19:43:36.872Z,20.45
2018-05-29T19:46:07.655Z,20.60
2018-05-29T19:48:39.150Z,22.25
2018-05-29T19:51:11.986Z,21.77
2018-05-29T19:53:41.903Z,23.00
2018-05-29T19:56:14.373Z,23.65
2018-05-29T19:58:43.576Z,22.70
2018-05-29T20:01:12.717Z,21.80
2018-05-29T20:03:42.193Z,22.77
2018-05-29T20:06:14.335Z,25.17
2018-05-29T20:08:45.646Z,23.87
2018-05-29T20:11:17.139Z,23.65
2018-05-29T20:13:46.365Z,24.70
2018-05-29T20:16:19.956Z,25.37
2018-05-29T20:18:49.563Z,27.83
2018-05-29T20:21:18.810Z,25.10
2018-05-29T20:23:48.449Z,26.25
2018-05-29T20:26:18.314Z,27.83
2018-05-29T20:28:48.283Z,27.97
2018-05-29T20:31:17.542Z,28.53
2018-05-29T20:33:47.436Z,28.10
2018-05-29T20:36:18.219Z,29.60
2018-05-29T20:38:50.895Z,30.53
2018-05-29T20:41:21.047Z,32.67
2018-05-29T20:43:51.961Z,36.50
2018-05-29T20:46:21.460Z,37.33
2018-05-29T20:48:50.849Z,38.13
2018-05-29T20:51:20.453Z,37.23
2018-05-29T20:53:52.088Z,38.43
2018-05-29T20:56:22.755Z,38.57
2018-05-29T20:58:56.406Z,38.43
2018-05-29T21:01:29.157Z,41.93
2018-05-29T21:04:14.632Z,38.97
2018-05-29T21:12:21.415Z,43.83
2018-05-29T21:14:54.456Z,42.83
2018-05-29T21:17:24.192Z,40.83
2018-05-29T21:19:53.604Z,44.17
2018-05-29T21:22:23.410Z,41.37
2018-05-29T21:24:53.750Z,43.37
2018-05-29T21:27:22.881Z,44.97
2018-05-29T21:29:52.411Z,37.43
2018-05-29T21:32:21.751Z,38.87
2018-05-29T21:34:51.175Z,40.00
2018-05-29T21:37:21.034Z,38.23
2018-05-29T21:39:53.220Z,38.93
2018-05-29T21:42:23.111Z,37.77
2018-05-29T21:44:54.136Z,38.33
2018-05-29T21:47:26.584Z,38.70
2018-05-29T21:52:45.439Z,36.47
2018-05-29T21:55:15.156Z,36.43
2018-05-29T21:57:50.332Z,32.57
2018-05-29T22:00:23.647Z,34.10
2018-05-29T22:02:54.340Z,34.47
2018-05-29T22:05:25.282Z,34.83
2018-05-29T22:07:55.362Z,35.33
2018-05-29T22:10:32.335Z,34.73
2018-05-29T22:13:02.274Z,34.70
2018-05-29T22:15:39.617Z,34.90
2018-05-29T22:18:14.814Z,33.60
2018-05-29T22:21:00.789Z,31.77
2018-05-29T22:23:30.652Z,27.63
2018-05-29T22:26:02.418Z,29.60
2018-05-29T22:28:32.769Z,30.63
2018-05-29T22:31:06.034Z,29.47
2018-05-29T22:33:37.156Z,28.47
2018-05-29T22:38:41.856Z,25.90
2018-05-29T22:41:11.409Z,23.67
2018-05-29T22:46:19.560Z,21.67
2018-05-29T22:48:49.704Z,21.77
2018-05-29T22:51:23.312Z,19.47
2018-05-29T22:53:52.371Z,18.13
2018-05-29T22:56:22.697Z,14.73
2018-05-29T22:58:52.332Z,13.73
2018-05-29T23:01:25.459Z,14.20
2018-05-29T23:03:58.409Z,14.47
2018-05-29T23:06:27.950Z,13.90
2018-05-29T23:08:57.093Z,14.67
2018-05-29T23:11:29.170Z,15.07
2018-05-29T23:13:58.274Z,15.10
2018-05-29T23:16:28.331Z,16.13
2018-05-29T23:18:57.454Z,17.23
2018-05-29T23:21:31.832Z,16.00
2018-05-29T23:24:01.109Z,16.77
2018-05-29T23:26:32.740Z,19.40
2018-05-29T23:29:01.896Z,16.90
2018-05-29T23:31:31.202Z,18.10
2018-05-29T23:34:13.161Z,17.77
2018-05-29T23:36:42.455Z,17.67
2018-05-29T23:39:13.965Z,16.60
2018-05-29T23:41:44.287Z,16.40
2018-05-29T23:44:20.608Z,19.23
2018-05-29T23:46:50.768Z,20.27
2018-05-29T23:49:22.106Z,20.70
2018-05-29T23:51:52.703Z,19.97
2018-05-29T23:54:24.345Z,20.00
2018-05-29T23:56:58.841Z,18.30
